sensor_id;sensor_type;location;lat;lon;timestamp;temperature;humidity
85702;DHT22;76139;50.888;3.882;2024-02-28T00:00:05;7.10;69.00
85702;DHT22;76139;50.888;3.882;2024-02-28T00:02:30;7.10;69.10
85702;DHT22;76139;50.888;3.882;2024-02-28T00:04:56;7.10;69.00
85702;DHT22;76139;50.888;3.882;2024-02-28T00:07:24;7.10;68.90
85702;DHT22;76139;50.888;3.882;2024-02-28T00:09:50;7.10;68.90
85702;DHT22;76139;50.888;3.882;2024-02-28T00:12:16;7.00;68.80
85702;DHT22;76139;50.888;3.882;2024-02-28T00:14:41;7.00;68.80
85702;DHT22;76139;50.888;3.882;2024-02-28T00:17:07;7.00;68.80
85702;DHT22;76139;50.888;3.882;2024-02-28T00:19:33;7.00;68.70
85702;DHT22;76139;50.888;3.882;2024-02-28T00:21:58;7.00;68.70
85702;DHT22;76139;50.888;3.882;2024-02-28T00:24:25;6.90;68.70
85702;DHT22;76139;50.888;3.882;2024-02-28T00:26:51;7.00;68.70
85702;DHT22;76139;50.888;3.882;2024-02-28T00:29:17;6.90;68.70
85702;DHT22;76139;50.888;3.882;2024-02-28T00:31:42;6.90;68.90
85702;DHT22;76139;50.888;3.882;2024-02-28T00:34:08;6.80;69.10
85702;DHT22;76139;50.888;3.882;2024-02-28T00:36:34;6.80;69.00
85702;DHT22;76139;50.888;3.882;2024-02-28T00:39:00;6.80;69.40
85702;DHT22;76139;50.888;3.882;2024-02-28T00:41:25;6.50;70.10
85702;DHT22;76139;50.888;3.882;2024-02-28T00:43:51;6.50;70.70
85702;DHT22;76139;50.888;3.882;2024-02-28T00:46:17;6.60;70.40
85702;DHT22;76139;50.888;3.882;2024-02-28T00:48:42;6.60;70.30
85702;DHT22;76139;50.888;3.882;2024-02-28T00:51:08;6.50;70.20
85702;DHT22;76139;50.888;3.882;2024-02-28T00:53:34;6.20;71.00
85702;DHT22;76139;50.888;3.882;2024-02-28T00:55:59;6.10;72.10
85702;DHT22;76139;50.888;3.882;2024-02-28T00:58:25;6.00;73.30
85702;DHT22;76139;50.888;3.882;2024-02-28T01:00:53;6.10;72.30
85702;DHT22;76139;50.888;3.882;2024-02-28T01:03:19;6.20;71.90
85702;DHT22;76139;50.888;3.882;2024-02-28T01:05:45;6.20;71.50
85702;DHT22;76139;50.888;3.882;2024-02-28T01:08:10;6.00;71.90
85702;DHT22;76139;50.888;3.882;2024-02-28T01:10:36;6.10;71.90
85702;DHT22;76139;50.888;3.882;2024-02-28T01:13:03;6.20;71.40
85702;DHT22;76139;50.888;3.882;2024-02-28T01:15:29;6.20;71.30
85702;DHT22;76139;50.888;3.882;2024-02-28T01:17:55;6.20;71.60
85702;DHT22;76139;50.888;3.882;2024-02-28T01:20:20;6.30;71.10
85702;DHT22;76139;50.888;3.882;2024-02-28T01:22:46;6.30;70.80
85702;DHT22;76139;50.888;3.882;2024-02-28T01:25:12;6.30;70.90
85702;DHT22;76139;50.888;3.882;2024-02-28T01:27:38;6.40;70.70
85702;DHT22;76139;50.888;3.882;2024-02-28T01:30:04;6.40;70.40
85702;DHT22;76139;50.888;3.882;2024-02-28T01:32:30;6.40;70.30
85702;DHT22;76139;50.888;3.882;2024-02-28T01:34:55;6.50;70.30
85702;DHT22;76139;50.888;3.882;2024-02-28T01:37:21;6.50;70.20
85702;DHT22;76139;50.888;3.882;2024-02-28T01:39:47;6.60;69.90
85702;DHT22;76139;50.888;3.882;2024-02-28T01:42:14;6.60;70.10
85702;DHT22;76139;50.888;3.882;2024-02-28T01:44:49;6.60;70.00
85702;DHT22;76139;50.888;3.882;2024-02-28T01:47:15;6.60;69.90
85702;DHT22;76139;50.888;3.882;2024-02-28T01:49:42;6.50;70.10
85702;DHT22;76139;50.888;3.882;2024-02-28T01:52:09;6.50;70.30
85702;DHT22;76139;50.888;3.882;2024-02-28T01:54:35;6.50;70.40
85702;DHT22;76139;50.888;3.882;2024-02-28T01:57:02;6.50;70.60
85702;DHT22;76139;50.888;3.882;2024-02-28T01:59:29;6.60;70.60
85702;DHT22;76139;50.888;3.882;2024-02-28T02:01:56;6.60;70.40
85702;DHT22;76139;50.888;3.882;2024-02-28T02:04:22;6.40;70.70
85702;DHT22;76139;50.888;3.882;2024-02-28T02:06:48;6.50;71.80
85702;DHT22;76139;50.888;3.882;2024-02-28T02:09:15;6.40;71.00
85702;DHT22;76139;50.888;3.882;2024-02-28T02:11:41;6.40;71.00
85702;DHT22;76139;50.888;3.882;2024-02-28T02:14:07;6.40;71.40
85702;DHT22;76139;50.888;3.882;2024-02-28T02:16:33;6.40;71.40
85702;DHT22;76139;50.888;3.882;2024-02-28T02:18:58;6.40;71.50
85702;DHT22;76139;50.888;3.882;2024-02-28T02:21:30;6.40;71.40
85702;DHT22;76139;50.888;3.882;2024-02-28T02:23:55;6.30;71.50
85702;DHT22;76139;50.888;3.882;2024-02-28T02:26:21;6.20;72.10
85702;DHT22;76139;50.888;3.882;2024-02-28T02:28:47;6.20;72.20
85702;DHT22;76139;50.888;3.882;2024-02-28T02:31:13;6.30;72.00
85702;DHT22;76139;50.888;3.882;2024-02-28T02:33:39;6.20;72.40
85702;DHT22;76139;50.888;3.882;2024-02-28T02:36:05;6.30;72.20
85702;DHT22;76139;50.888;3.882;2024-02-28T02:38:30;6.30;72.10
85702;DHT22;76139;50.888;3.882;2024-02-28T02:40:56;6.30;72.30
85702;DHT22;76139;50.888;3.882;2024-02-28T02:43:22;6.20;72.20
85702;DHT22;76139;50.888;3.882;2024-02-28T02:45:47;6.30;72.50
85702;DHT22;76139;50.888;3.882;2024-02-28T02:48:13;6.20;72.40
85702;DHT22;76139;50.888;3.882;2024-02-28T02:50:39;6.20;72.50
85702;DHT22;76139;50.888;3.882;2024-02-28T02:53:10;6.30;72.30
85702;DHT22;76139;50.888;3.882;2024-02-28T02:55:36;6.30;72.40
85702;DHT22;76139;50.888;3.882;2024-02-28T02:58:02;6.30;72.50
85702;DHT22;76139;50.888;3.882;2024-02-28T03:00:28;6.30;72.70
85702;DHT22;76139;50.888;3.882;2024-02-28T03:02:54;6.30;72.60
85702;DHT22;76139;50.888;3.882;2024-02-28T03:05:19;6.30;72.60
85702;DHT22;76139;50.888;3.882;2024-02-28T03:07:45;6.10;72.90
85702;DHT22;76139;50.888;3.882;2024-02-28T03:10:11;6.20;73.00
85702;DHT22;76139;50.888;3.882;2024-02-28T03:12:37;6.20;73.00
85702;DHT22;76139;50.888;3.882;2024-02-28T03:15:03;6.20;73.00
85702;DHT22;76139;50.888;3.882;2024-02-28T03:17:29;6.10;73.10
85702;DHT22;76139;50.888;3.882;2024-02-28T03:19:54;6.10;73.10
85702;DHT22;76139;50.888;3.882;2024-02-28T03:22:20;6.10;73.10
85702;DHT22;76139;50.888;3.882;2024-02-28T03:24:46;6.10;73.30
85702;DHT22;76139;50.888;3.882;2024-02-28T03:27:12;6.10;73.40
85702;DHT22;76139;50.888;3.882;2024-02-28T03:29:37;6.00;73.50
85702;DHT22;76139;50.888;3.882;2024-02-28T03:32:03;6.10;73.60
85702;DHT22;76139;50.888;3.882;2024-02-28T03:34:29;6.00;73.50
85702;DHT22;76139;50.888;3.882;2024-02-28T03:36:55;6.10;73.50
85702;DHT22;76139;50.888;3.882;2024-02-28T03:39:21;6.00;73.60
85702;DHT22;76139;50.888;3.882;2024-02-28T03:41:47;6.00;73.90
85702;DHT22;76139;50.888;3.882;2024-02-28T03:44:12;5.90;74.30
85702;DHT22;76139;50.888;3.882;2024-02-28T03:46:38;5.90;74.70
85702;DHT22;76139;50.888;3.882;2024-02-28T03:49:04;5.90;75.00
85702;DHT22;76139;50.888;3.882;2024-02-28T03:51:29;5.90;75.10
85702;DHT22;76139;50.888;3.882;2024-02-28T03:53:55;6.10;75.30
85702;DHT22;76139;50.888;3.882;2024-02-28T03:56:27;6.20;74.90
85702;DHT22;76139;50.888;3.882;2024-02-28T03:58:54;6.30;75.30
85702;DHT22;76139;50.888;3.882;2024-02-28T04:01:19;6.30;74.70
85702;DHT22;76139;50.888;3.882;2024-02-28T04:03:45;6.50;74.80
85702;DHT22;76139;50.888;3.882;2024-02-28T04:06:11;6.60;74.40
85702;DHT22;76139;50.888;3.882;2024-02-28T04:08:37;6.50;74.20
85702;DHT22;76139;50.888;3.882;2024-02-28T04:11:03;6.40;74.60
85702;DHT22;76139;50.888;3.882;2024-02-28T04:13:29;6.50;75.00
85702;DHT22;76139;50.888;3.882;2024-02-28T04:15:55;6.50;74.80
85702;DHT22;76139;50.888;3.882;2024-02-28T04:18:21;6.50;75.00
85702;DHT22;76139;50.888;3.882;2024-02-28T04:20:46;6.70;74.70
85702;DHT22;76139;50.888;3.882;2024-02-28T04:23:12;6.70;74.60
85702;DHT22;76139;50.888;3.882;2024-02-28T04:25:38;6.70;74.80
85702;DHT22;76139;50.888;3.882;2024-02-28T04:28:06;6.80;74.80
85702;DHT22;76139;50.888;3.882;2024-02-28T04:30:32;6.90;74.70
85702;DHT22;76139;50.888;3.882;2024-02-28T04:32:58;7.00;74.60
85702;DHT22;76139;50.888;3.882;2024-02-28T04:35:24;7.00;74.30
85702;DHT22;76139;50.888;3.882;2024-02-28T04:37:50;7.10;74.40
85702;DHT22;76139;50.888;3.882;2024-02-28T04:40:16;7.10;74.10
85702;DHT22;76139;50.888;3.882;2024-02-28T04:42:42;7.20;74.10
85702;DHT22;76139;50.888;3.882;2024-02-28T04:45:11;7.20;74.50
85702;DHT22;76139;50.888;3.882;2024-02-28T04:47:37;7.20;74.20
85702;DHT22;76139;50.888;3.882;2024-02-28T04:50:03;7.20;74.60
85702;DHT22;76139;50.888;3.882;2024-02-28T04:52:30;7.10;74.60
85702;DHT22;76139;50.888;3.882;2024-02-28T04:54:56;6.80;75.40
85702;DHT22;76139;50.888;3.882;2024-02-28T04:57:22;6.60;75.20
85702;DHT22;76139;50.888;3.882;2024-02-28T04:59:48;6.00;76.60
85702;DHT22;76139;50.888;3.882;2024-02-28T05:02:13;5.70;77.40
85702;DHT22;76139;50.888;3.882;2024-02-28T05:04:39;5.50;77.30
85702;DHT22;76139;50.888;3.882;2024-02-28T05:07:05;5.30;77.80
85702;DHT22;76139;50.888;3.882;2024-02-28T05:09:33;5.00;79.00
85702;DHT22;76139;50.888;3.882;2024-02-28T05:11:59;4.90;80.20
85702;DHT22;76139;50.888;3.882;2024-02-28T05:14:25;4.70;81.50
85702;DHT22;76139;50.888;3.882;2024-02-28T05:16:50;4.50;81.20
85702;DHT22;76139;50.888;3.882;2024-02-28T05:19:16;4.40;81.50
85702;DHT22;76139;50.888;3.882;2024-02-28T05:21:44;4.40;81.70
85702;DHT22;76139;50.888;3.882;2024-02-28T05:24:09;4.40;81.90
85702;DHT22;76139;50.888;3.882;2024-02-28T05:26:36;4.40;81.90
85702;DHT22;76139;50.888;3.882;2024-02-28T05:29:03;4.20;82.10
85702;DHT22;76139;50.888;3.882;2024-02-28T05:31:29;4.10;83.00
85702;DHT22;76139;50.888;3.882;2024-02-28T05:33:57;3.90;84.20
85702;DHT22;76139;50.888;3.882;2024-02-28T05:36:24;3.70;85.00
85702;DHT22;76139;50.888;3.882;2024-02-28T05:38:50;3.60;85.80
85702;DHT22;76139;50.888;3.882;2024-02-28T05:41:17;3.70;85.90
85702;DHT22;76139;50.888;3.882;2024-02-28T05:43:43;3.70;85.80
85702;DHT22;76139;50.888;3.882;2024-02-28T05:46:09;3.70;86.30
85702;DHT22;76139;50.888;3.882;2024-02-28T05:48:35;3.70;86.40
85702;DHT22;76139;50.888;3.882;2024-02-28T05:51:01;3.80;86.40
85702;DHT22;76139;50.888;3.882;2024-02-28T05:53:29;3.70;86.20
85702;DHT22;76139;50.888;3.882;2024-02-28T05:55:58;3.70;86.50
85702;DHT22;76139;50.888;3.882;2024-02-28T05:58:24;3.80;86.40
85702;DHT22;76139;50.888;3.882;2024-02-28T06:00:51;3.90;86.60
85702;DHT22;76139;50.888;3.882;2024-02-28T06:03:17;3.80;86.10
85702;DHT22;76139;50.888;3.882;2024-02-28T06:05:42;3.70;86.30
85702;DHT22;76139;50.888;3.882;2024-02-28T06:08:08;3.60;87.00
85702;DHT22;76139;50.888;3.882;2024-02-28T06:10:34;3.80;87.30
85702;DHT22;76139;50.888;3.882;2024-02-28T06:12:59;3.70;87.30
85702;DHT22;76139;50.888;3.882;2024-02-28T06:15:26;3.60;87.40
85702;DHT22;76139;50.888;3.882;2024-02-28T06:17:52;3.70;87.60
85702;DHT22;76139;50.888;3.882;2024-02-28T06:20:17;3.70;87.70
85702;DHT22;76139;50.888;3.882;2024-02-28T06:22:43;3.70;88.50
85702;DHT22;76139;50.888;3.882;2024-02-28T06:25:09;3.70;87.90
85702;DHT22;76139;50.888;3.882;2024-02-28T06:27:43;3.70;88.00
85702;DHT22;76139;50.888;3.882;2024-02-28T06:30:09;3.70;88.80
85702;DHT22;76139;50.888;3.882;2024-02-28T06:32:35;3.80;87.40
85702;DHT22;76139;50.888;3.882;2024-02-28T06:35:01;3.80;87.50
85702;DHT22;76139;50.888;3.882;2024-02-28T06:37:26;3.80;87.40
85702;DHT22;76139;50.888;3.882;2024-02-28T06:39:53;3.90;88.50
85702;DHT22;76139;50.888;3.882;2024-02-28T06:42:19;3.90;87.50
85702;DHT22;76139;50.888;3.882;2024-02-28T06:44:44;3.90;87.60
85702;DHT22;76139;50.888;3.882;2024-02-28T06:47:10;4.00;87.30
85702;DHT22;76139;50.888;3.882;2024-02-28T06:49:35;4.00;87.20
85702;DHT22;76139;50.888;3.882;2024-02-28T06:52:01;3.80;88.10
85702;DHT22;76139;50.888;3.882;2024-02-28T06:54:27;3.80;88.50
85702;DHT22;76139;50.888;3.882;2024-02-28T06:56:54;3.80;88.80
85702;DHT22;76139;50.888;3.882;2024-02-28T06:59:20;4.00;88.80
85702;DHT22;76139;50.888;3.882;2024-02-28T07:01:45;4.10;88.00
85702;DHT22;76139;50.888;3.882;2024-02-28T07:04:11;4.10;87.70
85702;DHT22;76139;50.888;3.882;2024-02-28T07:06:37;4.20;87.60
85702;DHT22;76139;50.888;3.882;2024-02-28T07:09:02;4.30;87.60
85702;DHT22;76139;50.888;3.882;2024-02-28T07:11:28;4.30;87.30
85702;DHT22;76139;50.888;3.882;2024-02-28T07:13:54;4.50;87.00
85702;DHT22;76139;50.888;3.882;2024-02-28T07:16:19;4.60;86.20
85702;DHT22;76139;50.888;3.882;2024-02-28T07:18:45;5.00;85.40
85702;DHT22;76139;50.888;3.882;2024-02-28T07:21:10;5.10;84.00
85702;DHT22;76139;50.888;3.882;2024-02-28T07:23:39;5.10;83.60
85702;DHT22;76139;50.888;3.882;2024-02-28T07:26:06;4.90;84.30
85702;DHT22;76139;50.888;3.882;2024-02-28T07:28:32;4.80;85.30
85702;DHT22;76139;50.888;3.882;2024-02-28T07:30:58;4.70;86.00
85702;DHT22;76139;50.888;3.882;2024-02-28T07:33:23;4.60;86.90
85702;DHT22;76139;50.888;3.882;2024-02-28T07:35:52;4.50;87.10
85702;DHT22;76139;50.888;3.882;2024-02-28T07:38:18;4.50;87.60
85702;DHT22;76139;50.888;3.882;2024-02-28T07:40:47;4.50;87.80
85702;DHT22;76139;50.888;3.882;2024-02-28T07:43:13;4.40;88.30
85702;DHT22;76139;50.888;3.882;2024-02-28T07:45:39;4.50;88.60
85702;DHT22;76139;50.888;3.882;2024-02-28T07:48:05;4.50;88.40
85702;DHT22;76139;50.888;3.882;2024-02-28T07:50:31;4.60;88.00
85702;DHT22;76139;50.888;3.882;2024-02-28T07:52:57;4.50;88.30
85702;DHT22;76139;50.888;3.882;2024-02-28T07:55:22;4.50;88.80
85702;DHT22;76139;50.888;3.882;2024-02-28T07:57:54;4.70;88.40
85702;DHT22;76139;50.888;3.882;2024-02-28T08:00:20;4.80;87.80
85702;DHT22;76139;50.888;3.882;2024-02-28T08:02:46;5.00;87.00
85702;DHT22;76139;50.888;3.882;2024-02-28T08:05:13;5.10;86.70
85702;DHT22;76139;50.888;3.882;2024-02-28T08:07:40;5.00;86.70
85702;DHT22;76139;50.888;3.882;2024-02-28T08:10:06;5.10;86.70
85702;DHT22;76139;50.888;3.882;2024-02-28T08:12:32;5.00;86.20
85702;DHT22;76139;50.888;3.882;2024-02-28T08:14:58;4.90;86.90
85702;DHT22;76139;50.888;3.882;2024-02-28T08:17:24;5.00;87.10
85702;DHT22;76139;50.888;3.882;2024-02-28T08:19:49;4.90;87.40
85702;DHT22;76139;50.888;3.882;2024-02-28T08:22:15;5.00;87.30
85702;DHT22;76139;50.888;3.882;2024-02-28T08:24:41;5.00;87.30
85702;DHT22;76139;50.888;3.882;2024-02-28T08:27:07;5.10;87.20
85702;DHT22;76139;50.888;3.882;2024-02-28T08:29:33;5.00;87.90
85702;DHT22;76139;50.888;3.882;2024-02-28T08:32:00;5.10;87.90
85702;DHT22;76139;50.888;3.882;2024-02-28T08:34:26;5.30;87.10
85702;DHT22;76139;50.888;3.882;2024-02-28T08:36:52;5.30;86.70
85702;DHT22;76139;50.888;3.882;2024-02-28T08:39:17;5.30;87.10
85702;DHT22;76139;50.888;3.882;2024-02-28T08:41:43;5.20;87.30
85702;DHT22;76139;50.888;3.882;2024-02-28T08:44:10;5.20;88.00
85702;DHT22;76139;50.888;3.882;2024-02-28T08:46:36;5.30;88.00
85702;DHT22;76139;50.888;3.882;2024-02-28T08:49:01;5.40;87.50
85702;DHT22;76139;50.888;3.882;2024-02-28T08:51:28;5.40;87.80
85702;DHT22;76139;50.888;3.882;2024-02-28T08:53:54;5.50;87.70
85702;DHT22;76139;50.888;3.882;2024-02-28T08:56:21;5.50;87.30
85702;DHT22;76139;50.888;3.882;2024-02-28T08:58:47;5.80;87.00
85702;DHT22;76139;50.888;3.882;2024-02-28T09:01:14;5.80;86.50
85702;DHT22;76139;50.888;3.882;2024-02-28T09:03:40;5.70;86.90
85702;DHT22;76139;50.888;3.882;2024-02-28T09:06:06;5.80;87.10
85702;DHT22;76139;50.888;3.882;2024-02-28T09:08:32;6.00;86.50
85702;DHT22;76139;50.888;3.882;2024-02-28T09:10:58;6.20;85.60
85702;DHT22;76139;50.888;3.882;2024-02-28T09:13:24;6.30;85.60
85702;DHT22;76139;50.888;3.882;2024-02-28T09:15:49;6.70;83.90
85702;DHT22;76139;50.888;3.882;2024-02-28T09:18:16;7.10;83.00
85702;DHT22;76139;50.888;3.882;2024-02-28T09:20:42;7.40;81.10
85702;DHT22;76139;50.888;3.882;2024-02-28T09:23:07;7.60;79.80
85702;DHT22;76139;50.888;3.882;2024-02-28T09:25:33;7.60;80.20
85702;DHT22;76139;50.888;3.882;2024-02-28T09:28:01;7.60;80.60
85702;DHT22;76139;50.888;3.882;2024-02-28T09:30:27;7.70;80.30
85702;DHT22;76139;50.888;3.882;2024-02-28T09:32:53;7.50;80.60
85702;DHT22;76139;50.888;3.882;2024-02-28T09:35:19;7.80;80.50
85702;DHT22;76139;50.888;3.882;2024-02-28T09:37:45;8.20;79.10
85702;DHT22;76139;50.888;3.882;2024-02-28T09:40:11;8.60;78.20
85702;DHT22;76139;50.888;3.882;2024-02-28T09:42:37;8.80;76.90
85702;DHT22;76139;50.888;3.882;2024-02-28T09:45:04;8.90;76.80
85702;DHT22;76139;50.888;3.882;2024-02-28T09:47:30;9.00;75.80
85702;DHT22;76139;50.888;3.882;2024-02-28T09:49:57;8.90;75.40
85702;DHT22;76139;50.888;3.882;2024-02-28T09:52:26;8.80;76.90
85702;DHT22;76139;50.888;3.882;2024-02-28T09:54:53;8.80;76.90
85702;DHT22;76139;50.888;3.882;2024-02-28T09:57:19;8.90;76.30
85702;DHT22;76139;50.888;3.882;2024-02-28T09:59:46;9.00;76.50
85702;DHT22;76139;50.888;3.882;2024-02-28T10:02:17;9.10;76.50
85702;DHT22;76139;50.888;3.882;2024-02-28T10:04:45;9.50;75.40
85702;DHT22;76139;50.888;3.882;2024-02-28T10:07:14;9.70;74.60
85702;DHT22;76139;50.888;3.882;2024-02-28T10:09:41;9.60;74.40
85702;DHT22;76139;50.888;3.882;2024-02-28T10:12:07;9.50;74.40
85702;DHT22;76139;50.888;3.882;2024-02-28T10:14:33;9.10;76.40
85702;DHT22;76139;50.888;3.882;2024-02-28T10:16:59;9.20;76.70
85702;DHT22;76139;50.888;3.882;2024-02-28T10:19:24;9.40;76.00
85702;DHT22;76139;50.888;3.882;2024-02-28T10:21:51;9.80;75.20
85702;DHT22;76139;50.888;3.882;2024-02-28T10:24:16;10.00;73.80
85702;DHT22;76139;50.888;3.882;2024-02-28T10:26:46;10.30;73.70
85702;DHT22;76139;50.888;3.882;2024-02-28T10:29:23;10.20;73.60
85702;DHT22;76139;50.888;3.882;2024-02-28T10:31:49;10.10;73.50
85702;DHT22;76139;50.888;3.882;2024-02-28T10:34:18;9.90;74.60
85702;DHT22;76139;50.888;3.882;2024-02-28T10:36:44;10.10;74.70
85702;DHT22;76139;50.888;3.882;2024-02-28T10:39:11;10.10;74.20
85702;DHT22;76139;50.888;3.882;2024-02-28T10:41:40;10.20;75.70
85702;DHT22;76139;50.888;3.882;2024-02-28T10:44:06;10.30;74.30
85702;DHT22;76139;50.888;3.882;2024-02-28T10:46:32;10.20;74.40
85702;DHT22;76139;50.888;3.882;2024-02-28T10:48:58;10.40;73.50
85702;DHT22;76139;50.888;3.882;2024-02-28T10:51:24;10.40;73.60
85702;DHT22;76139;50.888;3.882;2024-02-28T10:56:29;10.50;73.50
85702;DHT22;76139;50.888;3.882;2024-02-28T10:58:57;10.60;73.40
85702;DHT22;76139;50.888;3.882;2024-02-28T11:01:25;10.40;73.00
85702;DHT22;76139;50.888;3.882;2024-02-28T11:03:51;10.40;73.60
85702;DHT22;76139;50.888;3.882;2024-02-28T11:06:18;10.10;75.00
85702;DHT22;76139;50.888;3.882;2024-02-28T11:08:47;10.10;74.70
85702;DHT22;76139;50.888;3.882;2024-02-28T11:11:18;9.80;75.90
85702;DHT22;76139;50.888;3.882;2024-02-28T11:13:57;9.60;77.40
85702;DHT22;76139;50.888;3.882;2024-02-28T11:16:27;10.10;76.50
85702;DHT22;76139;50.888;3.882;2024-02-28T11:18:53;10.50;75.30
85702;DHT22;76139;50.888;3.882;2024-02-28T11:21:19;10.60;74.30
85702;DHT22;76139;50.888;3.882;2024-02-28T11:23:48;10.80;73.80
85702;DHT22;76139;50.888;3.882;2024-02-28T11:26:14;10.90;73.10
85702;DHT22;76139;50.888;3.882;2024-02-28T11:28:40;10.80;74.30
85702;DHT22;76139;50.888;3.882;2024-02-28T11:31:06;10.40;74.70
85702;DHT22;76139;50.888;3.882;2024-02-28T11:33:31;10.50;75.30
85702;DHT22;76139;50.888;3.882;2024-02-28T11:36:00;10.50;76.00
85702;DHT22;76139;50.888;3.882;2024-02-28T11:38:26;10.70;75.40
85702;DHT22;76139;50.888;3.882;2024-02-28T11:40:53;10.70;75.40
85702;DHT22;76139;50.888;3.882;2024-02-28T11:43:19;10.70;75.10
85702;DHT22;76139;50.888;3.882;2024-02-28T11:45:44;10.60;74.90
85702;DHT22;76139;50.888;3.882;2024-02-28T11:48:15;10.50;76.10
85702;DHT22;76139;50.888;3.882;2024-02-28T11:50:41;10.60;75.30
85702;DHT22;76139;50.888;3.882;2024-02-28T11:53:08;10.60;76.40
85702;DHT22;76139;50.888;3.882;2024-02-28T11:55:34;10.70;75.50
85702;DHT22;76139;50.888;3.882;2024-02-28T11:58:00;10.60;76.00
85702;DHT22;76139;50.888;3.882;2024-02-28T12:00:26;11.00;75.10
85702;DHT22;76139;50.888;3.882;2024-02-28T12:02:52;11.10;73.00
85702;DHT22;76139;50.888;3.882;2024-02-28T12:05:22;11.20;73.60
85702;DHT22;76139;50.888;3.882;2024-02-28T12:07:48;11.10;71.90
85702;DHT22;76139;50.888;3.882;2024-02-28T12:10:14;10.90;72.70
85702;DHT22;76139;50.888;3.882;2024-02-28T12:12:40;10.60;72.70
85702;DHT22;76139;50.888;3.882;2024-02-28T12:15:06;10.50;73.90
85702;DHT22;76139;50.888;3.882;2024-02-28T12:17:32;10.70;74.10
85702;DHT22;76139;50.888;3.882;2024-02-28T12:20:01;10.70;73.60
85702;DHT22;76139;50.888;3.882;2024-02-28T12:22:26;10.80;73.00
85702;DHT22;76139;50.888;3.882;2024-02-28T12:24:52;10.70;74.10
85702;DHT22;76139;50.888;3.882;2024-02-28T12:27:18;10.90;73.50
85702;DHT22;76139;50.888;3.882;2024-02-28T12:29:44;11.00;73.20
85702;DHT22;76139;50.888;3.882;2024-02-28T12:32:10;11.00;72.40
85702;DHT22;76139;50.888;3.882;2024-02-28T12:34:35;10.90;72.00
85702;DHT22;76139;50.888;3.882;2024-02-28T12:37:01;10.50;73.20
85702;DHT22;76139;50.888;3.882;2024-02-28T12:39:28;10.60;73.80
85702;DHT22;76139;50.888;3.882;2024-02-28T12:41:54;10.60;73.50
85702;DHT22;76139;50.888;3.882;2024-02-28T12:44:19;10.50;73.60
85702;DHT22;76139;50.888;3.882;2024-02-28T12:46:45;10.50;74.50
85702;DHT22;76139;50.888;3.882;2024-02-28T12:49:11;10.80;73.60
85702;DHT22;76139;50.888;3.882;2024-02-28T12:51:40;10.90;72.60
85702;DHT22;76139;50.888;3.882;2024-02-28T12:54:08;10.90;72.50
85702;DHT22;76139;50.888;3.882;2024-02-28T12:56:37;10.90;72.50
85702;DHT22;76139;50.888;3.882;2024-02-28T12:59:03;10.90;72.60
85702;DHT22;76139;50.888;3.882;2024-02-28T13:01:29;10.90;72.50
85702;DHT22;76139;50.888;3.882;2024-02-28T13:03:56;10.90;72.30
85702;DHT22;76139;50.888;3.882;2024-02-28T13:06:22;11.10;71.80
85702;DHT22;76139;50.888;3.882;2024-02-28T13:08:48;11.70;70.60
85702;DHT22;76139;50.888;3.882;2024-02-28T13:11:21;12.20;68.80
85702;DHT22;76139;50.888;3.882;2024-02-28T13:13:51;12.40;67.60
85702;DHT22;76139;50.888;3.882;2024-02-28T13:16:20;12.30;67.70
85702;DHT22;76139;50.888;3.882;2024-02-28T13:18:47;12.50;67.60
85702;DHT22;76139;50.888;3.882;2024-02-28T13:21:13;12.40;67.80
85702;DHT22;76139;50.888;3.882;2024-02-28T13:23:39;12.40;66.90
85702;DHT22;76139;50.888;3.882;2024-02-28T13:26:05;12.10;68.20
85702;DHT22;76139;50.888;3.882;2024-02-28T13:28:31;12.20;67.80
85702;DHT22;76139;50.888;3.882;2024-02-28T13:31:01;12.50;66.60
85702;DHT22;76139;50.888;3.882;2024-02-28T13:33:27;11.90;68.30
85702;DHT22;76139;50.888;3.882;2024-02-28T13:35:53;11.80;69.60
85702;DHT22;76139;50.888;3.882;2024-02-28T13:38:20;12.10;69.40
85702;DHT22;76139;50.888;3.882;2024-02-28T13:40:49;12.00;68.40
85702;DHT22;76139;50.888;3.882;2024-02-28T13:43:16;11.80;69.00
85702;DHT22;76139;50.888;3.882;2024-02-28T13:45:51;11.70;70.20
85702;DHT22;76139;50.888;3.882;2024-02-28T13:48:21;11.70;69.90
85702;DHT22;76139;50.888;3.882;2024-02-28T13:50:47;11.80;69.90
85702;DHT22;76139;50.888;3.882;2024-02-28T13:53:14;11.90;68.60
85702;DHT22;76139;50.888;3.882;2024-02-28T13:55:44;12.10;68.40
85702;DHT22;76139;50.888;3.882;2024-02-28T13:58:14;12.30;68.50
85702;DHT22;76139;50.888;3.882;2024-02-28T14:00:44;12.30;67.30
85702;DHT22;76139;50.888;3.882;2024-02-28T14:03:11;12.30;67.50
85702;DHT22;76139;50.888;3.882;2024-02-28T14:05:36;12.30;66.90
85702;DHT22;76139;50.888;3.882;2024-02-28T14:08:02;12.30;67.10
85702;DHT22;76139;50.888;3.882;2024-02-28T14:10:34;12.50;67.30
85702;DHT22;76139;50.888;3.882;2024-02-28T14:13:00;12.60;67.30
85702;DHT22;76139;50.888;3.882;2024-02-28T14:15:26;12.50;66.90
85702;DHT22;76139;50.888;3.882;2024-02-28T14:17:52;12.40;66.70
85702;DHT22;76139;50.888;3.882;2024-02-28T14:20:18;11.90;67.80
85702;DHT22;76139;50.888;3.882;2024-02-28T14:22:44;11.50;69.50
85702;DHT22;76139;50.888;3.882;2024-02-28T14:25:16;11.60;69.20
85702;DHT22;76139;50.888;3.882;2024-02-28T14:27:43;11.60;69.80
85702;DHT22;76139;50.888;3.882;2024-02-28T14:30:10;11.70;69.10
85702;DHT22;76139;50.888;3.882;2024-02-28T14:32:36;12.10;68.10
85702;DHT22;76139;50.888;3.882;2024-02-28T14:35:06;12.40;66.50
85702;DHT22;76139;50.888;3.882;2024-02-28T14:37:36;12.40;66.00
85702;DHT22;76139;50.888;3.882;2024-02-28T14:40:02;12.60;65.60
85702;DHT22;76139;50.888;3.882;2024-02-28T14:42:32;12.90;65.00
85702;DHT22;76139;50.888;3.882;2024-02-28T14:44:58;12.90;64.50
85702;DHT22;76139;50.888;3.882;2024-02-28T14:47:25;12.10;66.00
85702;DHT22;76139;50.888;3.882;2024-02-28T14:49:50;11.70;68.00
85702;DHT22;76139;50.888;3.882;2024-02-28T14:52:16;11.50;68.40
85702;DHT22;76139;50.888;3.882;2024-02-28T14:54:42;11.50;69.30
85702;DHT22;76139;50.888;3.882;2024-02-28T14:57:10;11.70;68.90
85702;DHT22;76139;50.888;3.882;2024-02-28T14:59:35;12.00;67.50
85702;DHT22;76139;50.888;3.882;2024-02-28T15:02:01;11.80;68.30
85702;DHT22;76139;50.888;3.882;2024-02-28T15:04:27;11.80;68.80
85702;DHT22;76139;50.888;3.882;2024-02-28T15:06:52;11.90;68.00
85702;DHT22;76139;50.888;3.882;2024-02-28T15:09:21;12.10;67.00
85702;DHT22;76139;50.888;3.882;2024-02-28T15:11:50;12.00;67.20
85702;DHT22;76139;50.888;3.882;2024-02-28T15:14:16;11.80;67.50
85702;DHT22;76139;50.888;3.882;2024-02-28T15:16:42;11.70;68.40
85702;DHT22;76139;50.888;3.882;2024-02-28T15:19:08;11.60;68.60
85702;DHT22;76139;50.888;3.882;2024-02-28T15:21:33;11.60;69.00
85702;DHT22;76139;50.888;3.882;2024-02-28T15:23:59;11.70;68.60
85702;DHT22;76139;50.888;3.882;2024-02-28T15:26:25;11.80;68.30
85702;DHT22;76139;50.888;3.882;2024-02-28T15:28:50;11.90;68.40
85702;DHT22;76139;50.888;3.882;2024-02-28T15:31:16;12.00;68.30
85702;DHT22;76139;50.888;3.882;2024-02-28T15:33:42;12.00;67.80
85702;DHT22;76139;50.888;3.882;2024-02-28T15:36:07;12.00;68.00